Time;durP1;ratioP1;P1;durP2;ratioP2;P2;SDS_P1;SDS_P2;PMS_P1;PMS_P2;Temp;Humidity;BMP_temperature;BMP_pressure;BME280_temperature;BME280_humidity;BME280_pressure;Samples;Min_cycle;Max_cycle;Signal;HPM_P1;HPM_P2
2022/01/08 03:46:39;;;;;;;25.92;12.38;;;0.20;90.90;;;;;;5260487;24;20054;-80
2022/01/08 03:49:25;;;;;;;27.60;12.80;;;0.20;91.00;;;;;;4830568;29;20022;-81
2022/01/08 03:51:56;;;;;;;24.25;11.07;;;0.20;90.80;;;;;;4823000;29;20226;-80
2022/01/08 03:54:22;;;;;;;22.05;11.55;;;0.30;90.90;;;;;;4800187;29;20045;-80
2022/01/08 03:56:49;;;;;;;26.98;12.10;;;0.40;90.80;;;;;;4820978;29;20030;-80
2022/01/08 03:59:15;;;;;;;;;;;0.40;90.50;;;;;;4825361;29;20038;-80
2022/01/08 04:01:41;;;;;;;23.87;11.57;;;0.40;90.40;;;;;;4848231;29;19911;-80
2022/01/08 04:04:07;;;;;;;23.57;11.60;;;0.40;90.20;;;;;;4848190;29;20045;-80
2022/01/08 04:06:33;;;;;;;28.58;11.32;;;0.40;90.30;;;;;;4811105;29;20310;-80
2022/01/08 04:08:59;;;;;;;26.63;11.68;;;0.40;90.30;;;;;;4825899;29;20058;-80
2022/01/08 04:11:26;;;;;;;23.20;11.52;;;0.40;90.20;;;;;;4825664;29;20038;-79
2022/01/08 04:13:53;;;;;;;22.95;11.07;;;0.40;90.00;;;;;;4822156;29;20057;-80
2022/01/08 04:16:25;;;;;;;26.23;11.23;;;0.40;90.10;;;;;;4840301;29;20045;-80
2022/01/08 04:18:51;;;;;;;22.85;11.45;;;0.40;89.50;;;;;;4840771;29;20048;-81
2022/01/08 04:23:45;;;;;;;33.58;12.18;;;0.40;90.00;;;;;;4830457;29;20042;-80
2022/01/08 04:26:11;;;;;;;27.33;11.55;;;0.40;89.40;;;;;;4819377;29;20038;-80
2022/01/08 04:28:37;;;;;;;23.05;11.35;;;0.30;89.50;;;;;;4804343;29;20062;-80
2022/01/08 04:31:03;;;;;;;30.67;12.48;;;0.30;90.00;;;;;;4818645;29;20334;-80
2022/01/08 04:33:28;;;;;;;23.23;10.65;;;0.30;90.00;;;;;;4804054;29;20109;-80
2022/01/08 04:35:55;;;;;;;30.98;10.88;;;0.40;90.00;;;;;;4834878;29;20091;-80
2022/01/08 04:38:21;;;;;;;26.35;12.45;;;0.40;90.10;;;;;;4821749;29;20279;-81
2022/01/08 04:40:47;;;;;;;26.38;13.07;;;0.40;90.10;;;;;;4819417;29;20035;-80
2022/01/08 04:43:14;;;;;;;24.45;11.52;;;0.50;90.10;;;;;;4801317;29;20238;-79
2022/01/08 04:45:40;;;;;;;26.80;12.40;;;0.50;90.10;;;;;;4832712;29;20098;-81
2022/01/08 04:48:06;;;;;;;31.45;11.65;;;0.60;90.00;;;;;;4819056;29;20092;-81
2022/01/08 04:50:32;;;;;;;26.95;12.30;;;0.50;90.00;;;;;;4805580;29;20038;-81
2022/01/08 04:52:59;;;;;;;27.67;13.50;;;0.40;90.20;;;;;;4819835;29;20065;-80
2022/01/08 04:55:27;;;;;;;28.57;12.50;;;0.50;90.60;;;;;;4835211;29;20070;-80
2022/01/08 04:57:53;;;;;;;32.75;12.85;;;0.50;90.40;;;;;;4825828;29;20034;-80
2022/01/08 05:00:21;;;;;;;27.42;12.00;;;0.50;90.40;;;;;;4825801;29;20031;-80
2022/01/08 05:02:47;;;;;;;23.50;12.32;;;0.60;90.80;;;;;;4825198;29;20038;-80
2022/01/08 05:05:12;;;;;;;28.57;13.10;;;0.60;90.40;;;;;;4810438;29;20042;-80
2022/01/08 05:07:39;;;;;;;30.05;12.88;;;0.60;90.30;;;;;;4824975;29;20042;-80
2022/01/08 05:10:06;;;;;;;25.00;11.83;;;0.60;90.40;;;;;;4824976;29;20034;-80
2022/01/08 05:12:32;;;;;;;26.73;12.68;;;0.60;90.50;;;;;;4824935;29;20296;-80
2022/01/08 05:15:00;;;;;;;32.92;12.65;;;0.60;90.50;;;;;;4821966;29;20049;-81
2022/01/08 05:17:30;;;;;;;25.23;12.80;;;0.60;90.40;;;;;;4822841;29;20253;-80
2022/01/08 05:19:59;;;;;;;32.58;13.90;;;0.50;90.60;;;;;;4808395;29;20079;-80
2022/01/08 05:22:29;;;;;;;22.17;12.82;;;0.50;90.80;;;;;;4842859;29;20038;-80
2022/01/08 05:24:56;;;;;;;30.52;13.20;;;0.50;90.90;;;;;;4825462;29;20068;-80
2022/01/08 05:27:22;;;;;;;;;;;0.50;91.00;;;;;;4821962;29;20034;-80
2022/01/08 05:29:50;;;;;;;31.08;13.82;;;0.40;91.10;;;;;;4818336;29;20051;-80
2022/01/08 05:32:19;;;;;;;24.95;13.52;;;0.40;91.20;;;;;;4818152;29;20069;-80
2022/01/08 05:34:47;;;;;;;33.53;15.73;;;0.40;91.40;;;;;;4818358;29;20083;-80
2022/01/08 05:37:14;;;;;;;32.15;14.15;;;0.40;91.60;;;;;;4818182;29;20030;-80
2022/01/08 05:39:40;;;;;;;31.55;14.23;;;0.40;91.70;;;;;;4818304;29;20034;-79
2022/01/08 05:42:06;;;;;;;37.53;15.90;;;0.40;91.90;;;;;;4818268;29;20049;-80
2022/01/08 05:44:32;;;;;;;41.97;17.42;;;0.40;92.10;;;;;;4833289;29;20030;-80
2022/01/08 05:46:58;;;;;;;34.17;20.20;;;0.40;92.00;;;;;;4817853;29;20141;-80
2022/01/08 05:49:24;;;;;;;27.83;20.43;;;0.40;92.40;;;;;;4818341;29;20028;-80
2022/01/08 05:51:50;;;;;;;25.75;14.20;;;0.50;92.50;;;;;;4818248;29;20055;-80
2022/01/08 05:54:16;;;;;;;29.03;14.53;;;0.50;92.60;;;;;;4833257;29;20046;-80
2022/01/08 05:56:43;;;;;;;27.45;14.15;;;0.50;92.70;;;;;;4803602;29;20395;-80
2022/01/08 05:59:09;;;;;;;26.73;14.55;;;0.60;92.60;;;;;;4803026;29;20034;-80
2022/01/08 06:01:35;;;;;;;27.95;14.60;;;0.60;92.70;;;;;;4817897;29;20318;-79
2022/01/08 06:04:01;;;;;;;30.33;13.40;;;0.60;92.80;;;;;;4817661;29;20408;-80
2022/01/08 06:06:27;;;;;;;38.47;14.60;;;0.60;92.70;;;;;;4817989;29;20110;-81
2022/01/08 06:08:53;;;;;;;27.73;13.32;;;0.60;92.70;;;;;;4817536;29;20091;-80
2022/01/08 06:11:19;;;;;;;24.77;11.65;;;0.60;92.70;;;;;;4814949;29;20260;-80
2022/01/08 06:13:44;;;;;;;34.70;13.38;;;0.60;92.40;;;;;;4801978;29;20563;-80
2022/01/08 06:16:10;;;;;;;33.53;15.75;;;0.60;92.40;;;;;;4814589;29;20059;-80
2022/01/08 06:18:37;;;;;;;34.30;15.90;;;0.60;92.30;;;;;;4807662;29;20091;-80
2022/01/08 06:21:04;;;;;;;38.65;18.58;;;0.60;92.10;;;;;;4818050;29;20034;-80
2022/01/08 06:23:30;;;;;;;40.22;17.67;;;0.60;92.20;;;;;;4820561;29;20046;-80
2022/01/08 06:25:56;;;;;;;36.97;16.70;;;0.60;92.00;;;;;;4819780;29;20039;-80
2022/01/08 06:28:21;;;;;;;32.63;14.95;;;0.60;92.10;;;;;;4821097;29;20053;-80
2022/01/08 06:30:47;;;;;;;28.98;13.02;;;0.60;92.10;;;;;;4821158;29;20031;-80
2022/01/08 06:33:14;;;;;;;26.98;13.52;;;0.60;92.20;;;;;;4836015;29;20034;-80
2022/01/08 06:35:40;;;;;;;;;;;0.70;92.00;;;;;;4806286;29;20079;-80
2022/01/08 06:38:06;;;;;;;26.63;12.83;;;0.60;92.20;;;;;;4821040;29;19912;-81
2022/01/08 06:40:32;;;;;;;33.38;13.15;;;0.60;92.00;;;;;;4818490;29;20031;-80
2022/01/08 06:42:58;;;;;;;27.85;12.85;;;0.60;92.20;;;;;;4820892;29;20045;-80
2022/01/08 06:45:24;;;;;;;32.83;14.13;;;0.70;92.30;;;;;;4790857;29;20046;-80
2022/01/08 06:47:50;;;;;;;29.65;13.65;;;0.70;92.20;;;;;;4827528;29;20050;-80
2022/01/08 06:50:16;;;;;;;28.05;14.13;;;0.70;92.10;;;;;;4817770;29;20083;-80
2022/01/08 06:52:41;;;;;;;30.45;14.32;;;0.70;92.10;;;;;;4816785;29;20071;-81
2022/01/08 06:55:08;;;;;;;26.17;13.20;;;0.70;92.20;;;;;;4804614;29;20046;-81
2022/01/08 06:57:34;;;;;;;30.50;12.67;;;0.60;92.10;;;;;;4814882;29;20035;-80
2022/01/08 07:00:01;;;;;;;35.80;13.98;;;0.60;92.30;;;;;;4816044;29;20646;-81
2022/01/08 07:02:27;;;;;;;28.67;14.07;;;0.70;92.40;;;;;;4814071;29;20030;-81
2022/01/08 07:04:53;;;;;;;31.23;13.50;;;0.70;92.30;;;;;;4798419;29;20243;-81
2022/01/08 07:07:19;;;;;;;31.08;13.65;;;0.70;92.60;;;;;;4801155;29;20042;-81
2022/01/08 07:09:45;;;;;;;26.23;13.70;;;0.80;92.20;;;;;;4814569;29;20030;-81
2022/01/08 07:12:11;;;;;;;28.50;13.73;;;0.70;92.20;;;;;;4829594;29;20057;-80
2022/01/08 07:14:37;;;;;;;31.75;13.70;;;0.70;92.20;;;;;;4815248;29;20101;-80
2022/01/08 07:17:03;;;;;;;28.05;14.10;;;0.70;92.40;;;;;;4803377;29;20030;-81
2022/01/08 07:19:28;;;;;;;33.30;15.35;;;0.70;92.20;;;;;;4786476;29;20038;-80
2022/01/08 07:21:54;;;;;;;32.45;14.95;;;0.70;92.00;;;;;;4813199;29;20035;-80
2022/01/08 07:24:20;;;;;;;28.40;14.13;;;0.70;92.00;;;;;;4817969;29;20064;-80
2022/01/08 07:26:46;;;;;;;32.80;16.08;;;0.80;92.00;;;;;;4809611;29;20085;-81
2022/01/08 07:29:12;;;;;;;29.50;15.30;;;0.80;91.70;;;;;;4796768;29;20041;-81
2022/01/08 07:31:38;;;;;;;32.75;14.98;;;0.80;91.70;;;;;;4827557;29;20303;-81
2022/01/08 07:34:03;;;;;;;41.67;20.17;;;0.80;91.80;;;;;;4809311;29;20053;-81
2022/01/08 07:36:29;;;;;;;39.33;17.48;;;0.80;91.90;;;;;;4778603;29;20030;-81
2022/01/08 07:38:55;;;;;;;33.50;15.02;;;0.90;91.90;;;;;;4780755;29;20026;-81
2022/01/08 07:41:21;;;;;;;31.33;14.48;;;0.90;91.50;;;;;;4812155;29;20058;-81
2022/01/08 07:43:46;;;;;;;33.00;15.40;;;0.90;91.70;;;;;;4809954;29;20046;-81
2022/01/08 07:46:13;;;;;;;31.52;15.30;;;0.90;91.60;;;;;;4780872;29;20232;-81
2022/01/08 07:48:40;;;;;;;29.93;16.80;;;1.00;91.70;;;;;;4825960;29;20414;-81
2022/01/08 07:51:08;;;;;;;27.52;13.88;;;1.00;91.50;;;;;;4812869;29;20042;-82
2022/01/08 07:53:34;;;;;;;29.95;14.63;;;1.10;91.30;;;;;;4802540;29;20035;-81
2022/01/08 07:56:00;;;;;;;27.67;14.27;;;1.10;91.30;;;;;;4815409;29;20331;-81
2022/01/08 07:58:26;;;;;;;34.72;15.55;;;1.20;91.30;;;;;;4797590;29;20227;-81
2022/01/08 08:00:53;;;;;;;31.23;14.93;;;1.20;91.20;;;;;;4814771;29;20031;-81
2022/01/08 08:03:20;;;;;;;33.90;14.82;;;1.30;91.10;;;;;;4814070;29;20043;-80
2022/01/08 08:05:47;;;;;;;31.02;14.25;;;1.40;91.00;;;;;;4810454;29;20027;-80
2022/01/08 08:08:17;;;;;;;24.25;14.18;;;1.30;90.70;;;;;;4814407;29;20042;-81
2022/01/08 08:10:44;;;;;;;35.25;15.10;;;1.30;90.70;;;;;;4806972;29;20034;-81
2022/01/08 08:13:10;;;;;;;28.00;14.60;;;1.20;90.60;;;;;;4810643;29;20035;-81
2022/01/08 08:15:35;;;;;;;37.53;17.33;;;1.20;91.00;;;;;;4810369;29;20078;-81
2022/01/08 08:18:01;;;;;;;33.42;17.10;;;1.20;91.20;;;;;;4811972;29;20394;-81
2022/01/08 08:20:27;;;;;;;33.03;15.35;;;1.30;91.20;;;;;;4826754;29;20279;-81
2022/01/08 08:22:53;;;;;;;29.52;14.73;;;1.40;90.80;;;;;;4808779;29;20152;-81
2022/01/08 08:25:19;;;;;;;34.42;16.08;;;1.50;90.60;;;;;;4802217;29;20037;-81
2022/01/08 08:27:44;;;;;;;24.75;14.02;;;1.40;90.10;;;;;;4813455;29;20106;-81
2022/01/08 08:30:11;;;;;;;34.15;14.68;;;1.40;90.20;;;;;;4795238;29;20031;-81
2022/01/08 08:32:37;;;;;;;31.58;15.35;;;1.30;90.70;;;;;;4815123;29;20122;-81
2022/01/08 08:35:04;;;;;;;30.33;14.27;;;1.30;90.90;;;;;;4809543;29;20200;-81
2022/01/08 08:37:30;;;;;;;29.63;14.43;;;1.40;90.70;;;;;;4815413;29;20030;-81
2022/01/08 08:39:55;;;;;;;32.00;14.80;;;1.60;90.80;;;;;;4816611;29;20038;-82
2022/01/08 08:42:21;;;;;;;29.42;14.68;;;1.70;90.20;;;;;;4811752;29;20039;-82
2022/01/08 08:44:47;;;;;;;33.22;15.80;;;1.70;90.20;;;;;;4812981;29;20218;-82
2022/01/08 08:47:13;;;;;;;33.03;17.77;;;1.70;90.10;;;;;;4811669;29;20055;-81
2022/01/08 08:49:39;;;;;;;35.97;19.03;;;1.60;90.10;;;;;;4780911;29;20379;-81
2022/01/08 08:52:05;;;;;;;31.58;14.35;;;1.70;90.20;;;;;;4827317;29;20038;-82
2022/01/08 08:54:31;;;;;;;28.27;14.60;;;1.80;90.20;;;;;;4808105;29;20223;-81
2022/01/08 08:56:57;;;;;;;28.08;14.55;;;1.80;90.00;;;;;;4814227;29;20034;-81
2022/01/08 08:59:24;;;;;;;31.67;14.80;;;1.90;90.40;;;;;;4808980;29;20357;-81
2022/01/08 09:01:50;;;;;;;34.85;14.85;;;2.10;90.00;;;;;;4789381;29;20157;-81
2022/01/08 09:04:15;;;;;;;33.83;13.43;;;2.20;89.40;;;;;;4798724;29;20057;-81
2022/01/08 09:06:41;;;;;;;33.65;16.77;;;2.40;89.20;;;;;;4829727;29;20030;-79
2022/01/08 09:09:07;;;;;;;35.30;16.77;;;2.50;87.40;;;;;;4795507;29;20230;-82
2022/01/08 09:11:34;;;;;;;30.60;14.32;;;2.50;88.20;;;;;;4829113;29;20386;-80
2022/01/08 09:14:00;;;;;;;24.55;13.48;;;2.50;86.60;;;;;;4800364;29;20050;-80
2022/01/08 09:16:27;;;;;;;24.48;13.15;;;2.40;88.30;;;;;;4795795;29;20039;-80
2022/01/08 09:18:55;;;;;;;32.67;15.02;;;2.50;87.90;;;;;;4826505;29;20207;-81
2022/01/08 09:21:24;;;;;;;34.65;15.82;;;2.60;87.90;;;;;;4830450;29;20030;-81
2022/01/08 09:23:50;;;;;;;29.55;14.25;;;2.60;87.20;;;;;;4814722;29;20113;-81
2022/01/08 09:26:16;;;;;;;32.22;15.85;;;2.60;87.50;;;;;;4827622;29;20079;-81
2022/01/08 09:28:42;;;;;;;29.25;14.52;;;2.70;87.50;;;;;;4833081;29;20097;-80
2022/01/08 09:31:08;;;;;;;28.67;14.93;;;2.70;87.50;;;;;;4802200;29;20109;-81
2022/01/08 09:33:35;;;;;;;25.98;13.27;;;2.80;87.60;;;;;;4817079;29;20094;-82
2022/01/08 09:36:02;;;;;;;27.80;13.93;;;2.80;86.90;;;;;;4814258;29;20062;-81
2022/01/08 09:38:28;;;;;;;26.48;13.52;;;2.90;86.80;;;;;;4814312;29;20231;-81
2022/01/08 09:40:54;;;;;;;29.02;14.00;;;3.00;86.80;;;;;;4793637;29;20035;-82
2022/01/08 09:43:21;;;;;;;30.97;14.53;;;3.10;85.90;;;;;;4826575;29;20234;-81
2022/01/08 09:45:47;;;;;;;31.60;14.63;;;3.20;85.70;;;;;;4814566;29;20295;-82
2022/01/08 09:48:13;;;;;;;31.08;13.35;;;3.20;83.90;;;;;;4802612;29;20053;-82
2022/01/08 09:50:41;;;;;;;33.35;14.77;;;3.10;83.90;;;;;;4817851;29;20346;-82
2022/01/08 09:53:08;;;;;;;24.95;13.13;;;3.10;83.90;;;;;;4833083;29;20031;-82
2022/01/08 09:55:34;;;;;;;27.23;15.30;;;2.80;84.20;;;;;;4817824;29;20345;-82
2022/01/08 09:57:59;;;;;;;28.88;14.75;;;2.80;85.40;;;;;;4819746;29;20030;-81
2022/01/08 10:00:25;;;;;;;32.15;16.58;;;2.90;85.90;;;;;;4821047;29;20034;-81
2022/01/08 10:02:51;;;;;;;33.10;15.18;;;2.90;85.80;;;;;;4820741;29;20039;-81
2022/01/08 10:05:18;;;;;;;30.27;14.93;;;2.80;85.50;;;;;;4819925;29;20341;-82
2022/01/08 10:08:04;;;;;;;28.73;14.68;;;2.90;85.00;;;;;;4820758;29;20034;-82
2022/01/08 10:10:30;;;;;;;40.78;16.38;;;2.90;86.00;;;;;;4830009;29;20329;-81
2022/01/08 10:12:59;;;;;;;33.50;14.68;;;3.00;86.00;;;;;;4816394;29;20051;-83
2022/01/08 10:18:33;;;;;;;29.13;13.85;;;3.30;85.90;;;;;;4826719;29;20030;-82
2022/01/08 10:21:21;;;;;;;33.28;14.40;;;3.40;85.00;;;;;;4828363;29;20110;-83
2022/01/08 10:23:59;;;;;;;23.75;13.35;;;3.40;84.10;;;;;;4826890;29;20037;-82
2022/01/08 10:26:31;;;;;;;25.20;14.52;;;3.40;83.10;;;;;;4828843;29;20031;-82
2022/01/08 10:29:02;;;;;;;27.85;15.18;;;3.40;83.60;;;;;;4820459;29;20030;-81
2022/01/08 10:31:31;;;;;;;34.78;15.82;;;3.40;83.60;;;;;;4835728;29;20226;-83
2022/01/08 10:34:03;;;;;;;27.77;14.45;;;3.40;83.30;;;;;;4810825;29;20041;-82
2022/01/08 10:36:30;;;;;;;25.98;13.45;;;3.30;82.30;;;;;;4820470;29;20069;-82
2022/01/08 10:38:58;;;;;;;26.17;13.80;;;3.20;83.30;;;;;;4805007;29;20022;-82
2022/01/08 10:41:25;;;;;;;37.95;16.23;;;3.20;83.30;;;;;;4801803;29;20101;-82
2022/01/08 10:44:10;;;;;;;30.20;14.80;;;3.10;83.10;;;;;;4819558;29;20057;-83
2022/01/08 10:46:37;;;;;;;36.33;14.82;;;3.10;84.10;;;;;;4819800;29;20365;-82
2022/01/08 10:49:04;;;;;;;37.33;16.15;;;3.00;83.90;;;;;;4809288;29;20037;-81
2022/01/08 10:51:38;;;;;;;32.45;15.18;;;3.10;84.80;;;;;;4813752;29;20139;-82
2022/01/08 10:54:10;;;;;;;31.88;15.25;;;3.10;84.00;;;;;;4827979;29;20088;-82
2022/01/08 10:56:45;;;;;;;30.58;14.15;;;3.10;84.10;;;;;;4812641;29;20034;-83
2022/01/08 10:59:20;;;;;;;30.95;16.00;;;3.00;84.00;;;;;;4825221;29;20367;-83
2022/01/08 11:01:58;;;;;;;55.30;23.63;;;3.00;84.60;;;;;;4818029;29;20323;-82
2022/01/08 11:04:49;;;;;;;42.17;21.65;;;3.00;85.20;;;;;;4834328;29;20098;-82
2022/01/08 11:07:25;;;;;;;29.48;15.02;;;3.10;85.90;;;;;;4830382;29;20030;-83
2022/01/08 11:09:53;;;;;;;35.63;14.77;;;3.20;85.00;;;;;;4819008;29;20356;-83
2022/01/08 11:12:30;;;;;;;25.42;14.65;;;3.30;85.00;;;;;;4829812;29;20282;-83
2022/01/08 11:17:39;;;;;;;30.67;14.48;;;3.40;84.30;;;;;;4829043;29;20030;-83
2022/01/08 11:20:18;;;;;;;28.55;14.55;;;3.50;84.00;;;;;;4827349;29;20326;-82
2022/01/08 11:22:49;;;;;;;34.55;14.73;;;3.60;82.70;;;;;;4833612;29;20117;-83
2022/01/08 11:25:23;;;;;;;31.88;15.35;;;3.70;82.90;;;;;;4825218;29;20050;-83
2022/01/08 11:27:55;;;;;;;31.52;14.98;;;3.80;83.20;;;;;;4828936;29;20022;-83
2022/01/08 11:30:30;;;;;;;27.02;14.18;;;3.90;82.10;;;;;;4825052;29;20241;-83
2022/01/08 11:33:00;;;;;;;26.08;13.23;;;4.00;82.10;;;;;;4829091;29;20049;-83
2022/01/08 11:35:27;;;;;;;25.77;14.40;;;4.10;81.70;;;;;;4832282;29;20240;-83
2022/01/08 11:37:56;;;;;;;24.45;13.20;;;4.00;80.00;;;;;;4816182;29;20344;-84
2022/01/08 11:40:25;;;;;;;25.67;14.63;;;4.00;80.90;;;;;;4801300;29;20057;-83
2022/01/08 11:42:52;;;;;;;32.78;13.57;;;3.90;81.10;;;;;;4831697;29;20334;-84
2022/01/08 11:45:24;;;;;;;27.63;13.75;;;4.00;81.50;;;;;;4817546;29;20224;-86
2022/01/08 11:47:53;;;;;;;28.80;14.60;;;3.90;81.00;;;;;;4832014;29;20038;-84
2022/01/08 11:50:25;;;;;;;30.05;14.07;;;3.90;81.10;;;;;;4818055;29;20330;-81
2022/01/08 11:53:20;;;;;;;26.25;14.43;;;3.90;81.60;;;;;;4811061;29;20377;-81
2022/01/08 11:55:50;;;;;;;23.80;13.05;;;3.90;80.90;;;;;;4830264;29;20030;-81
2022/01/08 11:58:37;;;;;;;26.65;12.95;;;3.80;80.00;;;;;;4829949;29;20023;-80
2022/01/08 12:01:13;;;;;;;31.20;13.65;;;3.70;80.50;;;;;;4813071;29;20027;-81
2022/01/08 12:03:48;;;;;;;28.80;12.93;;;3.60;80.80;;;;;;4829947;29;20022;-81
2022/01/08 12:06:21;;;;;;;26.23;12.50;;;3.60;81.70;;;;;;4816169;29;20114;-81
2022/01/08 12:09:08;;;;;;;24.55;12.90;;;3.70;80.70;;;;;;4818056;29;20026;-80
2022/01/08 12:11:56;;;;;;;23.13;12.57;;;3.60;80.70;;;;;;4830600;29;20031;-80
2022/01/08 12:14:43;;;;;;;28.00;13.15;;;3.60;80.80;;;;;;4829606;29;20241;-80
2022/01/08 12:17:18;;;;;;;32.30;14.23;;;3.60;80.50;;;;;;4830513;29;20136;-80
2022/01/08 12:19:55;;;;;;;22.08;12.82;;;3.60;80.60;;;;;;4814718;29;20037;-81
2022/01/08 12:22:22;;;;;;;24.20;11.80;;;3.50;80.10;;;;;;4828577;29;20050;-80
2022/01/08 12:25:00;;;;;;;28.77;12.30;;;3.50;80.50;;;;;;4814096;29;20367;-81
2022/01/08 12:27:35;;;;;;;23.27;12.63;;;3.50;81.00;;;;;;4823800;29;20051;-81
2022/01/08 12:30:20;;;;;;;27.83;12.45;;;3.70;80.50;;;;;;4823552;29;20022;-81
2022/01/08 12:32:50;;;;;;;24.85;12.63;;;3.70;80.40;;;;;;4824967;29;20199;-81
2022/01/08 12:35:20;;;;;;;24.85;13.43;;;3.70;80.20;;;;;;4796634;29;20033;-81
2022/01/08 12:37:50;;;;;;;29.90;13.88;;;3.70;80.00;;;;;;4828549;29;20057;-81
2022/01/08 12:40:44;;;;;;;24.33;13.50;;;3.70;80.50;;;;;;4833414;29;20033;-83
2022/01/08 12:43:30;;;;;;;27.20;14.73;;;3.70;80.30;;;;;;4818521;29;20211;-81
2022/01/08 12:46:13;;;;;;;28.75;12.98;;;3.80;79.90;;;;;;4818142;29;20129;-82
2022/01/08 12:48:38;;;;;;;23.80;12.02;;;3.70;79.80;;;;;;4833242;29;20034;-83
2022/01/08 12:51:06;;;;;;;31.00;12.85;;;3.70;79.30;;;;;;4817257;29;20057;-82
2022/01/08 12:53:34;;;;;;;26.95;12.48;;;3.60;79.60;;;;;;4817564;29;20053;-83
2022/01/08 12:55:59;;;;;;;25.88;11.85;;;3.40;80.60;;;;;;4817947;29;20064;-83
2022/01/08 12:58:31;;;;;;;25.38;13.93;;;3.50;80.50;;;;;;4817496;29;20239;-82
2022/01/08 13:00:59;;;;;;;28.40;13.45;;;3.50;81.10;;;;;;4811443;29;20034;-83
2022/01/08 13:03:45;;;;;;;23.88;13.38;;;3.50;80.70;;;;;;4827246;29;20042;-82
2022/01/08 13:06:14;;;;;;;28.23;13.25;;;3.70;80.60;;;;;;4814366;29;20042;-82
2022/01/08 13:08:43;;;;;;;25.98;14.00;;;3.60;80.30;;;;;;4815746;29;20334;-82
2022/01/08 13:11:10;;;;;;;24.38;13.07;;;3.60;80.60;;;;;;4828854;29;20034;-81
2022/01/08 13:14:02;;;;;;;21.98;12.52;;;3.70;80.60;;;;;;4813554;29;20152;-81
2022/01/08 13:16:49;;;;;;;24.45;12.98;;;3.60;80.50;;;;;;4815562;29;20043;-81
2022/01/08 13:19:20;;;;;;;23.42;12.05;;;3.60;79.90;;;;;;4828105;29;20377;-81
2022/01/08 13:21:53;;;;;;;23.73;12.25;;;3.50;80.50;;;;;;4824541;29;20091;-82
2022/01/08 13:24:22;;;;;;;28.08;13.27;;;3.60;80.60;;;;;;4835023;29;20062;-82
2022/01/08 13:26:49;;;;;;;21.20;11.32;;;3.60;80.50;;;;;;4818888;29;20034;-82
2022/01/08 13:29:34;;;;;;;23.95;12.68;;;3.50;81.30;;;;;;4813948;29;20118;-82
2022/01/08 13:32:07;;;;;;;23.10;12.55;;;3.40;81.10;;;;;;4834153;29;20038;-82
2022/01/08 13:34:43;;;;;;;27.10;12.68;;;3.40;81.30;;;;;;4819498;29;20073;-82
2022/01/08 13:37:13;;;;;;;23.63;12.75;;;3.40;81.70;;;;;;4829692;29;20037;-82
2022/01/08 13:39:45;;;;;;;32.10;14.90;;;3.40;82.00;;;;;;4845815;29;20045;-82
2022/01/08 13:42:46;;;;;;;23.13;12.48;;;3.50;81.80;;;;;;4843196;29;20281;-82
2022/01/08 13:45:25;;;;;;;25.60;12.55;;;3.60;81.90;;;;;;4782884;30;20039;-82
2022/01/08 13:47:52;;;;;;;25.33;13.15;;;3.80;81.90;;;;;;4805969;30;20047;-83
2022/01/08 13:50:23;;;;;;;31.27;13.48;;;3.90;81.30;;;;;;4796112;30;20040;-81
2022/01/08 13:52:53;;;;;;;24.38;13.18;;;3.90;80.80;;;;;;4770132;30;20046;-83
2022/01/08 13:55:33;;;;;;;27.10;13.63;;;4.00;81.20;;;;;;4766702;30;20105;-84
2022/01/08 13:58:07;;;;;;;20.58;12.13;;;4.10;80.70;;;;;;4760761;30;20042;-83
2022/01/08 14:00:36;;;;;;;26.40;13.07;;;4.10;80.40;;;;;;4779271;30;20039;-83
2022/01/08 14:03:03;;;;;;;26.52;13.07;;;4.20;80.00;;;;;;4753787;30;20223;-83
2022/01/08 14:05:29;;;;;;;25.73;14.90;;;4.20;79.90;;;;;;4778506;30;20088;-82
2022/01/08 14:08:06;;;;;;;28.92;14.25;;;4.10;80.00;;;;;;4763036;30;20047;-82
2022/01/08 14:10:37;;;;;;;;;;;4.20;80.10;;;;;;4790131;30;20397;-82
2022/01/08 14:13:08;;;;;;;29.15;13.48;;;4.20;79.20;;;;;;4775592;30;19913;-82
2022/01/08 14:15:34;;;;;;;27.00;12.95;;;4.20;79.60;;;;;;4763624;30;20046;-82
2022/01/08 14:18:14;;;;;;;27.73;13.90;;;4.30;80.00;;;;;;4763179;30;20100;-82
2022/01/08 14:20:41;;;;;;;23.38;12.82;;;4.30;79.90;;;;;;4795903;29;20351;-82
2022/01/08 14:23:11;;;;;;;;;;;4.30;79.20;;;;;;4823599;29;20344;-81
2022/01/08 14:25:37;;;;;;;31.75;13.48;;;4.30;79.20;;;;;;4814611;29;19983;-81
2022/01/08 14:28:24;;;;;;;33.97;15.23;;;4.30;79.20;;;;;;4801310;29;20038;-82
2022/01/08 14:30:51;;;;;;;31.27;14.70;;;4.20;79.00;;;;;;4806863;29;20034;-81
2022/01/08 14:33:17;;;;;;;30.05;14.23;;;4.00;79.50;;;;;;4784410;29;20096;-82
2022/01/08 14:35:43;;;;;;;29.90;14.70;;;4.00;79.90;;;;;;4809863;29;20038;-82
2022/01/08 14:38:08;;;;;;;28.45;14.73;;;3.90;80.20;;;;;;4813284;29;20397;-82
2022/01/08 14:40:35;;;;;;;28.63;13.07;;;3.70;80.70;;;;;;4813580;29;20033;-82
2022/01/08 14:43:07;;;;;;;25.20;13.07;;;3.60;81.20;;;;;;4831858;29;20034;-82
2022/01/08 14:45:36;;;;;;;29.27;13.68;;;3.60;81.60;;;;;;4836008;29;20031;-82
2022/01/08 14:48:15;;;;;;;24.92;13.55;;;3.60;81.90;;;;;;4820470;29;20034;-83
2022/01/08 14:50:41;;;;;;;26.27;14.55;;;3.60;81.90;;;;;;4819034;29;20038;-82
2022/01/08 14:53:07;;;;;;;27.63;14.60;;;3.60;82.00;;;;;;4799410;29;20030;-83
2022/01/08 14:55:35;;;;;;;29.33;14.55;;;3.70;82.10;;;;;;4809967;29;20037;-82
2022/01/08 14:58:01;;;;;;;26.98;13.88;;;3.70;82.10;;;;;;4811061;29;20394;-83
2022/01/08 15:00:28;;;;;;;32.13;15.53;;;3.70;82.00;;;;;;4834452;29;20034;-83
2022/01/08 15:02:54;;;;;;;31.33;14.40;;;3.60;82.10;;;;;;4820181;29;20045;-82
2022/01/08 15:05:20;;;;;;;27.88;14.88;;;3.70;82.40;;;;;;4829314;29;20081;-82
2022/01/08 15:07:46;;;;;;;27.48;14.38;;;3.70;82.00;;;;;;4817114;29;20042;-82
2022/01/08 15:10:12;;;;;;;29.10;14.30;;;3.70;81.90;;;;;;4817225;29;20042;-82
2022/01/08 15:12:39;;;;;;;29.50;14.82;;;3.70;82.00;;;;;;4815175;29;20072;-82
2022/01/08 15:15:08;;;;;;;28.25;14.80;;;3.70;82.00;;;;;;4794775;29;20042;-83
2022/01/08 15:17:35;;;;;;;26.50;13.50;;;3.60;82.00;;;;;;4825908;29;20038;-82
2022/01/08 15:20:03;;;;;;;32.42;15.77;;;3.60;82.30;;;;;;4811627;29;20041;-83
2022/01/08 15:22:29;;;;;;;32.50;15.57;;;3.50;82.60;;;;;;4813268;29;20076;-83
2022/01/08 15:24:54;;;;;;;31.50;16.98;;;3.50;82.70;;;;;;4804256;29;20039;-83
2022/01/08 15:27:21;;;;;;;30.00;16.20;;;3.30;83.10;;;;;;4816837;29;20680;-83
2022/01/08 15:29:47;;;;;;;29.10;16.17;;;3.20;83.40;;;;;;4801356;29;20331;-83
2022/01/08 15:32:13;;;;;;;34.58;15.43;;;3.20;84.00;;;;;;4788897;29;20022;-83
2022/01/08 15:34:38;;;;;;;27.58;14.85;;;3.10;84.20;;;;;;4834673;29;20064;-83
2022/01/08 15:37:05;;;;;;;29.58;15.65;;;3.10;84.50;;;;;;4834739;29;20393;-83
2022/01/08 15:39:33;;;;;;;33.30;15.20;;;3.00;84.70;;;;;;4819302;29;20046;-83
2022/01/08 15:41:59;;;;;;;36.35;16.35;;;3.00;85.20;;;;;;4819183;29;20113;-83
2022/01/08 15:44:25;;;;;;;30.30;14.70;;;3.00;85.40;;;;;;4804364;29;20046;-83
2022/01/08 15:46:52;;;;;;;33.25;16.70;;;2.90;85.70;;;;;;4816138;29;20130;-83
2022/01/08 15:49:18;;;;;;;30.33;14.60;;;2.80;86.80;;;;;;4817852;29;20087;-83
2022/01/08 15:51:44;;;;;;;29.17;16.10;;;2.80;86.40;;;;;;4834317;29;20031;-83
2022/01/08 15:54:10;;;;;;;33.43;15.63;;;2.80;86.60;;;;;;4818345;29;20046;-84
2022/01/08 15:56:39;;;;;;;35.35;16.58;;;2.70;87.00;;;;;;4818820;29;20406;-84
2022/01/08 15:59:06;;;;;;;34.28;17.40;;;2.70;87.60;;;;;;4819002;29;20039;-84
2022/01/08 16:01:32;;;;;;;;;;;2.70;88.20;;;;;;4834303;29;20206;-84
2022/01/08 16:03:58;;;;;;;36.03;17.08;;;2.70;88.60;;;;;;4818809;29;20112;-84
2022/01/08 16:06:25;;;;;;;32.83;16.15;;;2.70;88.80;;;;;;4817959;29;20046;-84
2022/01/08 16:08:51;;;;;;;34.13;16.17;;;2.70;88.90;;;;;;4817503;29;20038;-84
2022/01/08 16:11:19;;;;;;;33.13;16.10;;;2.60;89.00;;;;;;4803221;29;20314;-84
2022/01/08 16:13:46;;;;;;;29.77;15.82;;;2.60;89.90;;;;;;4815244;29;20046;-84
2022/01/08 16:16:12;;;;;;;;;;;2.60;89.80;;;;;;4830626;29;20027;-84
2022/01/08 16:18:38;;;;;;;35.28;15.80;;;2.70;90.00;;;;;;4827568;29;20142;-84
2022/01/08 16:21:04;;;;;;;35.80;15.43;;;2.70;90.10;;;;;;4826753;29;20038;-83
2022/01/08 16:23:30;;;;;;;26.60;14.35;;;2.70;90.30;;;;;;4798033;29;20113;-83
2022/01/08 16:25:57;;;;;;;31.95;15.18;;;2.80;90.30;;;;;;4814362;29;20354;-83
2022/01/08 16:28:23;;;;;;;;;;;2.90;90.50;;;;;;4798043;29;20061;-84
2022/01/08 16:30:50;;;;;;;28.55;11.57;;;3.00;90.90;;;;;;4810974;29;19919;-83
2022/01/08 16:33:18;;;;;;;14.57;7.35;;;3.00;91.20;;;;;;4815195;29;20050;-83
2022/01/08 16:35:46;;;;;;;11.13;5.38;;;3.20;93.20;;;;;;4800767;29;20050;-83
2022/01/08 16:38:14;;;;;;;7.63;4.55;;;3.60;94.00;;;;;;4830591;29;20050;-83
2022/01/08 16:40:42;;;;;;;8.82;5.80;;;3.90;93.20;;;;;;4827505;29;20034;-83
2022/01/08 16:43:08;;;;;;;6.20;3.58;;;4.10;92.70;;;;;;4801290;29;20038;-83